createdAt,value
2019-04-05T00:00:19.029Z,96926.20
2019-04-05T00:02:47.357Z,96937.23
2019-04-05T00:05:16.234Z,96920.95
2019-04-05T00:07:44.642Z,96916.13
2019-04-05T00:10:13.434Z,96920.77
2019-04-05T00:12:41.709Z,96924.45
2019-04-05T00:15:15.592Z,96920.03
2019-04-05T00:17:40.449Z,96923.48
2019-04-05T00:20:09.318Z,96931.28
2019-04-05T00:22:37.670Z,96934.41
2019-04-05T00:25:07.587Z,96929.97
2019-04-05T00:27:35.917Z,96926.84
2019-04-05T00:30:07.519Z,96920.66
2019-04-05T00:32:35.891Z,96924.39
2019-04-05T00:35:08.635Z,96921.85
2019-04-05T00:37:37.027Z,96926.44
2019-04-05T00:40:09.774Z,96915.51
2019-04-05T00:42:38.080Z,96917.89
2019-04-05T00:45:07.443Z,96909.52
2019-04-05T00:47:35.826Z,96909.84
2019-04-05T00:50:08.939Z,96906.42
2019-04-05T00:52:37.277Z,96912.63
2019-04-05T00:55:08.884Z,96917.51
2019-04-05T00:57:37.181Z,96926.48
2019-04-05T01:00:09.273Z,96931.08
2019-04-05T01:02:37.596Z,96926.33
2019-04-05T01:05:07.307Z,96925.50
2019-04-05T01:07:36.196Z,96932.92
2019-04-05T01:10:06.244Z,96935.50
2019-04-05T01:12:34.574Z,96937.30
2019-04-05T01:15:02.954Z,96940.68
2019-04-05T01:17:31.243Z,96941.52
2019-04-05T01:20:02.408Z,96939.16
2019-04-05T01:22:32.526Z,96933.41
2019-04-05T01:25:01.409Z,96943.27
2019-04-05T01:27:30.857Z,96944.24
2019-04-05T01:29:59.247Z,96932.50
2019-04-05T01:32:27.628Z,96929.41
2019-04-05T01:34:55.947Z,96936.66
2019-04-05T01:37:24.623Z,96936.16
2019-04-05T01:39:52.993Z,96933.81
2019-04-05T01:42:21.384Z,96942.08
2019-04-05T01:44:51.941Z,96942.48
2019-04-05T01:47:20.580Z,96943.03
2019-04-05T01:49:48.961Z,96951.55
2019-04-05T01:52:17.560Z,96952.66
2019-04-05T01:54:45.932Z,96966.53
2019-04-05T01:57:14.236Z,96976.25
2019-04-05T01:59:42.632Z,96965.61
2019-04-05T02:02:11.006Z,96968.52
2019-04-05T02:04:39.345Z,96966.16
2019-04-05T02:07:07.737Z,96965.13
2019-04-05T02:09:36.437Z,96964.91
2019-04-05T02:12:04.991Z,96968.25
2019-04-05T02:14:33.394Z,96963.40
2019-04-05T02:17:01.736Z,96966.03
2019-04-05T02:19:30.152Z,96955.45
2019-04-05T02:21:58.458Z,96949.49
2019-04-05T02:24:26.893Z,96963.99
2019-04-05T02:26:55.285Z,96968.74
2019-04-05T02:29:23.661Z,96976.11
2019-04-05T02:31:51.998Z,96971.38
2019-04-05T02:34:20.294Z,96969.73
2019-04-05T02:36:48.828Z,96966.66
2019-04-05T02:39:17.609Z,96971.29
2019-04-05T02:41:46.104Z,96944.95
2019-04-05T02:44:14.478Z,96968.05
2019-04-05T02:46:44.328Z,96962.30
2019-04-05T02:49:13.727Z,96961.98
2019-04-05T02:51:43.467Z,96965.80
2019-04-05T02:54:12.368Z,96969.91
2019-04-05T02:56:40.678Z,96970.05
2019-04-05T02:59:09.074Z,96968.03
2019-04-05T03:01:37.445Z,96979.53
2019-04-05T03:04:06.143Z,96983.63
2019-04-05T03:06:34.613Z,96983.72
2019-04-05T03:09:06.294Z,96985.80
2019-04-05T03:11:36.262Z,96989.84
2019-04-05T03:14:05.005Z,96992.89
2019-04-05T03:16:40.713Z,96995.05
2019-04-05T03:19:08.316Z,96991.96
2019-04-05T03:21:39.773Z,96993.65
2019-04-05T03:24:10.408Z,96997.56
2019-04-05T03:26:42.063Z,96997.59
2019-04-05T03:29:10.840Z,96995.67
2019-04-05T03:31:39.561Z,96992.10
2019-04-05T03:34:08.091Z,96997.20
2019-04-05T03:36:38.176Z,96986.03
2019-04-05T03:39:07.142Z,96989.72
2019-04-05T03:41:35.822Z,96988.30
2019-04-05T03:44:04.386Z,96986.31
2019-04-05T03:46:32.865Z,96986.41
2019-04-05T03:49:01.727Z,96988.47
2019-04-05T03:51:30.629Z,96991.58
2019-04-05T03:53:59.687Z,96997.12
2019-04-05T03:56:28.076Z,96996.69
2019-04-05T03:58:56.652Z,96999.66
2019-04-05T04:01:24.986Z,97002.86
2019-04-05T04:03:53.360Z,97017.48
2019-04-05T04:06:22.221Z,97022.61
2019-04-05T04:08:50.598Z,97026.17
2019-04-05T04:11:19.003Z,97017.25
2019-04-05T04:13:47.382Z,97022.85
2019-04-05T04:16:16.759Z,97033.41
2019-04-05T04:18:45.555Z,97031.03
2019-04-05T04:21:37.474Z,97031.86
2019-04-05T04:24:06.030Z,97028.66
2019-04-05T04:26:34.754Z,97030.92
2019-04-05T04:29:03.657Z,97035.42
2019-04-05T04:31:32.025Z,97037.93
2019-04-05T04:34:00.741Z,97037.55
2019-04-05T04:36:29.111Z,97040.84
2019-04-05T04:38:57.789Z,97041.48
2019-04-05T04:41:26.160Z,97046.91
2019-04-05T04:43:55.129Z,97050.48
2019-04-05T04:46:23.858Z,97050.06
2019-04-05T04:48:52.831Z,97037.66
2019-04-05T04:51:21.620Z,97030.75
2019-04-05T04:53:49.998Z,97038.63
2019-04-05T04:56:18.395Z,97051.47
2019-04-05T04:58:46.771Z,97049.70
2019-04-05T05:01:15.182Z,97046.88
2019-04-05T05:03:43.748Z,97045.50
2019-04-05T05:06:12.121Z,97050.11
2019-04-05T05:08:40.509Z,97051.89
2019-04-05T05:11:14.342Z,97053.14
2019-04-05T05:13:38.935Z,97053.14
2019-04-05T05:16:07.314Z,97057.06
2019-04-05T05:18:36.040Z,97066.08
2019-04-05T05:21:04.781Z,97058.56
2019-04-05T05:23:33.985Z,97065.02
2019-04-05T05:26:03.056Z,97070.02
2019-04-05T05:28:32.892Z,97072.84
2019-04-05T05:31:01.433Z,97070.38
2019-04-05T05:33:29.809Z,97074.77
2019-04-05T05:35:58.206Z,97076.33
2019-04-05T05:38:26.991Z,97076.70
2019-04-05T05:40:55.311Z,97075.16
2019-04-05T05:43:24.583Z,97078.38
2019-04-05T05:45:52.904Z,97073.63
2019-04-05T05:48:21.381Z,97070.87
2019-04-05T05:50:49.759Z,97066.84
2019-04-05T05:53:18.085Z,97072.67
2019-04-05T05:55:46.743Z,97066.22
2019-04-05T05:58:15.073Z,97066.80
2019-04-05T06:00:43.387Z,97070.05
2019-04-05T06:03:12.035Z,97075.73
2019-04-05T06:05:40.689Z,97077.98
2019-04-05T06:08:09.360Z,97081.83
2019-04-05T06:10:37.674Z,97086.45
2019-04-05T06:13:07.206Z,97088.59
2019-04-05T06:15:37.605Z,97078.60
2019-04-05T06:18:06.187Z,97078.47
2019-04-05T06:20:34.560Z,97085.38
2019-04-05T06:23:02.936Z,97066.13
2019-04-05T06:25:31.348Z,97075.38
2019-04-05T06:28:00.059Z,97080.34
2019-04-05T06:30:28.969Z,97083.58
2019-04-05T06:32:57.583Z,97083.41
2019-04-05T06:35:25.911Z,97087.22
2019-04-05T06:37:54.210Z,97086.52
2019-04-05T06:40:22.853Z,97083.75
2019-04-05T06:42:51.165Z,97073.17
2019-04-05T06:45:19.482Z,97088.26
2019-04-05T06:47:48.194Z,97088.26
2019-04-05T06:50:16.484Z,97089.00
2019-04-05T06:52:44.946Z,97090.05
2019-04-05T06:55:13.445Z,97088.31
2019-04-05T06:57:41.777Z,97085.45
2019-04-05T07:00:10.235Z,97094.23
2019-04-05T07:02:38.667Z,97097.55
2019-04-05T07:05:07.409Z,97096.20
2019-04-05T07:07:36.158Z,97097.55
2019-04-05T07:10:05.636Z,97090.42
2019-04-05T07:12:33.947Z,97092.47
2019-04-05T07:15:02.353Z,97080.38
2019-04-05T07:17:30.725Z,97080.94
2019-04-05T07:19:59.279Z,97080.71
2019-04-05T07:22:38.445Z,97081.94
2019-04-05T07:24:57.842Z,97074.85
2019-04-05T07:27:26.170Z,97078.94
2019-04-05T07:29:54.480Z,97079.84
2019-04-05T07:32:22.788Z,97087.45
2019-04-05T07:34:51.394Z,97090.84
2019-04-05T07:37:19.710Z,97095.33
2019-04-05T07:39:48.046Z,97096.34
2019-04-05T07:42:16.366Z,97088.00
2019-04-05T07:44:44.741Z,97088.00
2019-04-05T07:47:13.074Z,97070.48
2019-04-05T07:49:41.723Z,97082.30
2019-04-05T07:52:12.878Z,97083.64
2019-04-05T07:54:40.637Z,97086.42
2019-04-05T07:57:08.964Z,97093.67
2019-04-05T07:59:37.275Z,97091.58
2019-04-05T08:02:05.653Z,97090.63
2019-04-05T08:04:34.365Z,97085.73
2019-04-05T08:07:04.694Z,97095.04
2019-04-05T08:09:34.098Z,97097.44
2019-04-05T08:12:03.199Z,97089.55
2019-04-05T08:14:31.661Z,97093.41
2019-04-05T08:17:00.043Z,97084.30
2019-04-05T08:19:28.442Z,97094.36
2019-04-05T08:21:56.748Z,97095.44
2019-04-05T08:24:25.126Z,97091.91
2019-04-05T08:26:53.455Z,97095.22
2019-04-05T08:29:21.771Z,97099.19
2019-04-05T08:31:50.118Z,97095.77
2019-04-05T08:34:18.428Z,97100.06
2019-04-05T08:36:46.733Z,97095.83
2019-04-05T08:39:15.077Z,97103.00
2019-04-05T08:41:43.383Z,97103.64
2019-04-05T08:44:11.851Z,97101.39
2019-04-05T08:46:40.164Z,97102.87
2019-04-05T08:49:11.154Z,97103.62
2019-04-05T08:51:38.598Z,97096.28
2019-04-05T08:54:06.920Z,97094.59
2019-04-05T08:56:35.309Z,97098.08
2019-04-05T08:59:03.758Z,97097.78
2019-04-05T09:01:32.160Z,97089.70
2019-04-05T09:04:00.471Z,97096.92
2019-04-05T09:06:28.812Z,97090.65
2019-04-05T09:08:57.179Z,97098.77
2019-04-05T09:11:25.518Z,97091.16
2019-04-05T09:13:53.829Z,97088.27
2019-04-05T09:16:22.203Z,97089.02
2019-04-05T09:18:50.529Z,97090.88
2019-04-05T09:21:18.866Z,97092.97
2019-04-05T09:23:47.166Z,97096.27
2019-04-05T09:26:15.499Z,97098.77
2019-04-05T09:28:43.822Z,97098.18
2019-04-05T09:31:12.116Z,97089.87
2019-04-05T09:33:40.446Z,97091.31
2019-04-05T09:36:09.006Z,97091.25
2019-04-05T09:38:37.388Z,97093.84
2019-04-05T09:41:06.192Z,97094.40
2019-04-05T09:43:34.761Z,97094.00
2019-04-05T09:46:03.665Z,97095.16
2019-04-05T09:48:31.983Z,97082.19
2019-04-05T09:51:00.473Z,97080.88
2019-04-05T09:53:28.767Z,97083.06
2019-04-05T09:55:57.167Z,97072.80
2019-04-05T09:58:25.484Z,97074.01
2019-04-05T10:00:53.859Z,97073.67
2019-04-05T10:03:22.188Z,97068.60
2019-04-05T10:05:50.904Z,97061.23
2019-04-05T10:08:19.227Z,97054.65
2019-04-05T10:10:47.870Z,97051.27
2019-04-05T10:13:16.264Z,97056.70
2019-04-05T10:15:44.584Z,97058.63
2019-04-05T10:18:13.220Z,97059.75
2019-04-05T10:20:41.548Z,97063.00
2019-04-05T10:23:10.897Z,97060.64
2019-04-05T10:25:39.231Z,97052.85
2019-04-05T10:28:07.596Z,97045.44
2019-04-05T10:30:35.918Z,97041.80
2019-04-05T10:33:04.499Z,97038.72
2019-04-05T10:35:32.835Z,97040.38
2019-04-05T10:38:01.282Z,97034.34
2019-04-05T10:40:29.607Z,97028.85
2019-04-05T10:42:58.709Z,97031.89
2019-04-05T10:45:27.469Z,97025.05
2019-04-05T10:47:55.864Z,97025.59
2019-04-05T10:50:24.244Z,97027.92
2019-04-05T10:52:53.021Z,97022.28
2019-04-05T10:55:21.345Z,97019.44
2019-04-05T10:57:51.360Z,97013.84
2019-04-05T11:00:21.196Z,97023.77
2019-04-05T11:02:49.790Z,97022.76
2019-04-05T11:05:18.124Z,97020.10
2019-04-05T11:07:46.498Z,97012.14
2019-04-05T11:10:15.986Z,97013.84
2019-04-05T11:12:44.295Z,97011.83
2019-04-05T11:15:15.275Z,97009.50
2019-04-05T11:17:43.799Z,97007.20
2019-04-05T11:20:21.064Z,97004.53
2019-04-05T11:22:46.399Z,97002.22
2019-04-05T11:25:13.681Z,97002.71
2019-04-05T11:27:42.011Z,96995.95
2019-04-05T11:30:11.447Z,97001.41
2019-04-05T11:32:39.840Z,97001.92
2019-04-05T11:35:08.785Z,96993.61
2019-04-05T11:37:39.546Z,96985.74
2019-04-05T11:40:09.515Z,96993.53
2019-04-05T11:42:38.248Z,96987.67
2019-04-05T11:45:10.321Z,96981.91
2019-04-05T11:47:39.210Z,96979.53
2019-04-05T11:50:12.044Z,96975.86
2019-04-05T11:52:40.351Z,96975.93
2019-04-05T11:55:09.419Z,96978.52
2019-04-05T11:57:40.962Z,96978.19
2019-04-05T12:00:15.576Z,96963.39
2019-04-05T12:02:45.565Z,96954.80
2019-04-05T12:05:15.581Z,96957.61
2019-04-05T12:07:44.240Z,96961.52
2019-04-05T12:10:14.244Z,96968.30
2019-04-05T12:12:43.020Z,96967.50
2019-04-05T12:15:11.594Z,96965.30
2019-04-05T12:17:39.961Z,96952.25
2019-04-05T12:20:09.681Z,96956.62
2019-04-05T12:22:38.011Z,96961.11
2019-04-05T12:25:07.592Z,96956.12
2019-04-05T12:27:36.373Z,96957.67
2019-04-05T12:30:07.735Z,96955.06
2019-04-05T12:32:41.088Z,96948.34
2019-04-05T12:35:08.400Z,96947.27
2019-04-05T12:37:49.525Z,96943.33
2019-04-05T12:40:10.154Z,96945.88
2019-04-05T12:42:38.239Z,96939.59
2019-04-05T12:45:07.384Z,96932.82
2019-04-05T12:47:35.782Z,96931.46
2019-04-05T12:50:08.208Z,96936.60
2019-04-05T12:52:36.598Z,96920.23
2019-04-05T12:55:06.806Z,96913.94
2019-04-05T12:57:35.196Z,96907.76
2019-04-05T13:00:05.603Z,96905.75
2019-04-05T13:02:34.244Z,96902.83
2019-04-05T13:05:03.246Z,96890.55
2019-04-05T13:07:34.787Z,96896.66
2019-04-05T13:10:01.640Z,96897.63
2019-04-05T13:12:29.929Z,96894.95
2019-04-05T13:15:11.183Z,96885.75
2019-04-05T13:17:31.005Z,96880.92
2019-04-05T13:20:00.663Z,96883.37
2019-04-05T13:22:28.364Z,96875.99
2019-04-05T13:24:56.689Z,96872.20
2019-04-05T13:27:25.289Z,96869.89
2019-04-05T13:29:53.617Z,96873.92
2019-04-05T13:32:22.581Z,96868.58
2019-04-05T13:34:50.877Z,96868.81
2019-04-05T13:37:20.768Z,96861.91
2019-04-05T13:39:49.204Z,96868.92
2019-04-05T13:42:17.530Z,96867.29
2019-04-05T13:44:45.833Z,96863.63
2019-04-05T13:47:14.228Z,96868.77
2019-04-05T13:49:42.529Z,96868.77
2019-04-05T13:52:12.062Z,96861.56
2019-04-05T13:54:41.042Z,96862.88
2019-04-05T13:57:11.420Z,96861.27
2019-04-05T13:59:39.577Z,96864.84
2019-04-05T14:02:07.956Z,96860.06
2019-04-05T14:04:36.280Z,96860.06
2019-04-05T14:07:04.657Z,96853.02
2019-04-05T14:09:32.964Z,96854.69
2019-04-05T14:12:01.274Z,96851.55
2019-04-05T14:14:29.598Z,96854.33
2019-04-05T14:16:57.906Z,96853.26
2019-04-05T14:19:28.690Z,96844.39
2019-04-05T14:22:07.839Z,96841.05
2019-04-05T14:24:26.524Z,96836.75
2019-04-05T14:26:54.848Z,96842.38
2019-04-05T14:29:23.233Z,96839.61
2019-04-05T14:31:51.931Z,96842.47
2019-04-05T14:34:23.436Z,96847.36
2019-04-05T14:36:51.958Z,96842.89
2019-04-05T14:39:20.401Z,96839.95
2019-04-05T14:41:48.742Z,96841.59
2019-04-05T14:44:17.416Z,96842.36
2019-04-05T14:46:46.160Z,96838.16
2019-04-05T14:49:14.495Z,96836.95
2019-04-05T14:51:52.398Z,96841.97
2019-04-05T14:54:12.948Z,96841.05
2019-04-05T14:56:41.250Z,96835.83
2019-04-05T14:59:09.642Z,96841.44
2019-04-05T15:01:38.336Z,96836.89
2019-04-05T15:04:06.669Z,96840.56
2019-04-05T15:06:35.015Z,96837.02
2019-04-05T15:09:04.007Z,96834.70
2019-04-05T15:11:32.340Z,96839.16
2019-04-05T15:14:00.974Z,96839.59
2019-04-05T15:16:29.363Z,96841.99
2019-04-05T15:18:57.661Z,96843.63
2019-04-05T15:21:26.004Z,96848.78
2019-04-05T15:23:54.319Z,96844.80
2019-04-05T15:26:22.652Z,96842.98
2019-04-05T15:28:54.646Z,96849.47
2019-04-05T15:31:21.021Z,96856.47
2019-04-05T15:33:49.657Z,96844.55
2019-04-05T15:36:17.963Z,96857.36
2019-04-05T15:38:46.287Z,96857.99
2019-04-05T15:41:14.585Z,96858.44
2019-04-05T15:43:42.908Z,96867.41
2019-04-05T15:46:11.218Z,96865.75
2019-04-05T15:48:39.550Z,96871.24
2019-04-05T15:51:07.870Z,96863.70
2019-04-05T15:53:36.192Z,96871.67
2019-04-05T15:56:04.921Z,96866.84
2019-04-05T15:58:34.122Z,96865.78
2019-04-05T16:01:04.871Z,96873.52
2019-04-05T16:03:33.286Z,96872.91
2019-04-05T16:06:01.624Z,96881.45
2019-04-05T16:08:29.989Z,96880.65
2019-04-05T16:10:58.380Z,96880.16
2019-04-05T16:13:26.838Z,96885.49
2019-04-05T16:15:55.170Z,96884.17
2019-04-05T16:18:23.470Z,96885.33
2019-04-05T16:20:51.831Z,96885.94
2019-04-05T16:23:20.159Z,96889.30
2019-04-05T16:25:48.456Z,96894.08
2019-04-05T16:28:16.795Z,96890.41
2019-04-05T16:30:45.228Z,96897.33
2019-04-05T16:33:13.569Z,96888.72
2019-04-05T16:35:41.931Z,96888.72
2019-04-05T16:38:10.253Z,96894.00
2019-04-05T16:40:39.142Z,96896.66
2019-04-05T16:43:07.509Z,96898.02
2019-04-05T16:45:38.471Z,96899.28
2019-04-05T16:48:06.037Z,96903.00
2019-04-05T16:50:34.714Z,96909.16
2019-04-05T16:53:03.493Z,96916.72
2019-04-05T16:55:31.879Z,96909.11
2019-04-05T16:58:00.577Z,96911.98
2019-04-05T17:00:28.873Z,96903.55
2019-04-05T17:02:57.257Z,96905.50
2019-04-05T17:05:25.550Z,96903.48
2019-04-05T17:07:54.925Z,96902.19
2019-04-05T17:10:23.400Z,96886.63
2019-04-05T17:12:52.093Z,96901.75
2019-04-05T17:15:20.425Z,96913.19
2019-04-05T17:17:48.773Z,96912.25
2019-04-05T17:20:17.122Z,96916.58
2019-04-05T17:22:57.536Z,96915.06
2019-04-05T17:25:15.593Z,96910.54
2019-04-05T17:27:43.887Z,96915.98
2019-04-05T17:30:12.334Z,96918.56
2019-04-05T17:32:40.630Z,96922.42
2019-04-05T17:35:09.215Z,96920.61
2019-04-05T17:37:37.580Z,96929.58
2019-04-05T17:40:09.039Z,96922.45
2019-04-05T17:42:37.810Z,96924.89
2019-04-05T17:45:10.314Z,96928.44
2019-04-05T17:47:38.689Z,96934.41
2019-04-05T17:50:10.456Z,96935.31
2019-04-05T17:52:38.080Z,96947.45
2019-04-05T17:55:06.624Z,96945.05
2019-04-05T17:57:34.960Z,96946.27
2019-04-05T18:00:05.246Z,96949.77
2019-04-05T18:02:33.628Z,96954.11
2019-04-05T18:05:01.959Z,96952.14
2019-04-05T18:07:30.268Z,96948.06
2019-04-05T18:09:58.584Z,96959.59
2019-04-05T18:12:27.185Z,96960.36
2019-04-05T18:14:55.512Z,96962.55
2019-04-05T18:17:23.829Z,96964.50
2019-04-05T18:19:52.223Z,96964.16
2019-04-05T18:22:20.603Z,96967.34
2019-04-05T18:24:48.978Z,96966.91
2019-04-05T18:27:17.330Z,96969.95
2019-04-05T18:29:45.782Z,96975.97
2019-04-05T18:32:14.353Z,96971.50
2019-04-05T18:34:42.684Z,96977.52
2019-04-05T18:37:11.006Z,96980.50
2019-04-05T18:39:39.504Z,96983.69
2019-04-05T18:42:07.840Z,96986.56
2019-04-05T18:44:36.150Z,96986.20
2019-04-05T18:47:04.662Z,96984.89
2019-04-05T18:49:32.969Z,96982.27
2019-04-05T18:52:01.357Z,96984.93
2019-04-05T18:54:30.393Z,96984.66
2019-04-05T18:56:58.886Z,96992.53
2019-04-05T18:59:27.353Z,96996.14
2019-04-05T19:01:56.253Z,96995.67
2019-04-05T19:04:24.767Z,96994.96
2019-04-05T19:06:53.094Z,97000.61
2019-04-05T19:09:21.674Z,96999.36
2019-04-05T19:11:50.236Z,97008.48
2019-04-05T19:14:18.716Z,97002.50
2019-04-05T19:16:47.268Z,97009.23
2019-04-05T19:19:17.838Z,97001.05
2019-04-05T19:21:45.962Z,97005.86
2019-04-05T19:24:14.476Z,97010.22
2019-04-05T19:26:43.296Z,97005.52
2019-04-05T19:29:11.677Z,97004.75
2019-04-05T19:49:12.493Z,97017.05
2019-04-05T19:51:40.878Z,97019.02
2019-04-05T19:54:09.185Z,97015.53
2019-04-05T19:56:37.969Z,97012.70
2019-04-05T19:59:06.472Z,97021.27
2019-04-05T20:01:35.340Z,97021.28
2019-04-05T20:04:03.733Z,97016.65
2019-04-05T20:06:32.358Z,97025.41
2019-04-05T20:09:01.091Z,97020.44
2019-04-05T20:11:29.397Z,97022.64
2019-04-05T20:13:58.267Z,97020.16
2019-04-05T20:16:28.562Z,97025.30
2019-04-05T20:18:56.623Z,97031.15
2019-04-05T20:21:24.949Z,97026.49
2019-04-05T20:23:53.262Z,97019.98
2019-04-05T20:26:21.712Z,97028.64
2019-04-05T20:28:50.199Z,97034.73
2019-04-05T20:31:18.670Z,97038.25
2019-04-05T20:33:47.057Z,97040.27
2019-04-05T20:36:15.366Z,97041.89
2019-04-05T20:38:44.182Z,97041.52
2019-04-05T20:41:12.552Z,97040.47
2019-04-05T20:43:40.884Z,97036.63
2019-04-05T20:46:09.514Z,97042.41
2019-04-05T20:48:38.034Z,97037.69
2019-04-05T20:51:06.424Z,97044.84
2019-04-05T20:53:34.723Z,97037.75
2019-04-05T20:56:03.116Z,97039.00
2019-04-05T20:58:31.422Z,97036.90
2019-04-05T21:00:59.737Z,97036.05
2019-04-05T21:03:28.042Z,97040.19
2019-04-05T21:05:56.393Z,97035.65
2019-04-05T21:08:24.742Z,97035.65
2019-04-05T21:10:53.108Z,97027.45
2019-04-05T21:13:21.439Z,97025.34
2019-04-05T21:15:50.063Z,97021.63
2019-04-05T21:18:18.394Z,97022.30
2019-04-05T21:20:47.115Z,97025.00
2019-04-05T21:23:15.441Z,97018.36
2019-04-05T21:25:43.772Z,97015.82
2019-04-05T21:28:12.082Z,97012.94
2019-04-05T21:30:40.389Z,97014.94
2019-04-05T21:33:08.804Z,97012.32
2019-04-05T21:35:37.108Z,97014.70
2019-04-05T21:38:05.424Z,97019.22
2019-04-05T21:40:33.765Z,97016.44
2019-04-05T21:43:02.068Z,97010.08
2019-04-05T21:45:30.432Z,97013.30
2019-04-05T21:47:59.128Z,97014.23
2019-04-05T21:50:27.524Z,97015.48
2019-04-05T21:52:55.832Z,97019.09
2019-04-05T21:55:24.678Z,97018.97
2019-04-05T21:57:53.013Z,97017.34
2019-04-05T22:00:33.882Z,97017.34
2019-04-05T22:03:02.686Z,96983.33
2019-04-05T22:05:31.064Z,97022.88
2019-04-05T22:07:59.403Z,97013.98
2019-04-05T22:10:27.770Z,97027.96
2019-04-05T22:12:56.102Z,97030.97
2019-04-05T22:15:24.388Z,97025.65
2019-04-05T22:17:52.775Z,97025.02
2019-04-05T22:20:21.084Z,97034.52
2019-04-05T22:22:49.760Z,97027.83
2019-04-05T22:25:18.477Z,97028.99
2019-04-05T22:27:46.777Z,97030.05
2019-04-05T22:30:15.165Z,97023.75
2019-04-05T22:32:43.470Z,97024.65
2019-04-05T22:35:11.856Z,97026.36
2019-04-05T22:37:40.358Z,97031.10
2019-04-05T22:40:08.768Z,97030.03
2019-04-05T22:42:37.288Z,97027.41
2019-04-05T22:45:07.325Z,97025.05
2019-04-05T22:47:36.559Z,97018.16
2019-04-05T22:50:07.029Z,97017.00
2019-04-05T22:52:36.019Z,97018.74
2019-04-05T22:55:11.249Z,97015.80
2019-04-05T22:57:35.382Z,97016.27
2019-04-05T23:00:05.905Z,97019.20
2019-04-05T23:02:34.212Z,97018.41
2019-04-05T23:05:02.774Z,97016.75
2019-04-05T23:07:31.085Z,97019.02
2019-04-05T23:09:59.480Z,97016.26
2019-04-05T23:12:27.924Z,97013.78
2019-04-05T23:14:56.316Z,97016.37
2019-04-05T23:17:24.685Z,97015.53
2019-04-05T23:19:53.005Z,97015.23
2019-04-05T23:22:21.309Z,97023.26
2019-04-05T23:24:49.612Z,97021.66
2019-04-05T23:27:17.936Z,97019.05
2019-04-05T23:29:46.245Z,97025.20
2019-04-05T23:32:14.566Z,97028.66
2019-04-05T23:34:42.960Z,97031.06
2019-04-05T23:37:11.303Z,97025.45
2019-04-05T23:39:39.632Z,97024.62
2019-04-05T23:42:07.961Z,97024.75
2019-04-05T23:44:36.409Z,97027.35
2019-04-05T23:47:04.776Z,97026.88
2019-04-05T23:49:33.199Z,97026.15
2019-04-05T23:52:01.870Z,97023.53
2019-04-05T23:54:30.202Z,97027.23
2019-04-05T23:56:58.501Z,97025.06
2019-04-05T23:59:27.181Z,97020.69
